x

8537121 - Ship John Shoal, Nj (sjsn4) Weather Station

6:18pm - Tue 21st Nov 2017 All times are EST. -5 hours from GMT.

  • Wind
    20mph, 21mph gusts
  • Sea Temp 51°f
  • Air Temp 53°f
  • Sea Pressure 1017.8mb
  • 8537121 - Ship John Shoal, Nj
  • 8537121 - Ship John Shoal, Nj

More Historic Weather Station data

Upgrade to MSW Pro to gain access to the past 30 days of data for over 8000 Wavebouys and Weather Stations around the globe.

Join

Comparision Forecast

View Surf forecast
   
Tue 11/21 6:18pm 20 21 mph 1017.8mb 51f 53f
6:12pm 17 18 mph 1017.8mb 51f 53f
6:06pm 15 16 mph 1017.8mb 51f 53f
6:00pm 15 17 mph 1017.8mb 51f 53f
5:54pm 15 16 mph 1017.8mb 51f 53f
5:48pm 15 16 mph 1017.6mb 51f 53f
5:42pm 15 16 mph 1017.6mb 51f 53f
5:36pm 14 16 mph 1017.6mb 51f 53f
5:24pm 16 18 mph 1017.5mb 51f 54f
5:18pm 15 17 mph 1017.5mb 51f 53f
5:12pm 16 17 mph 1017.4mb 51f 53f
5:06pm 16 17 mph 1017.3mb 51f 53f
5:00pm 15 16 mph 1017.3mb 51f 53f
4:54pm 14 16 mph 1017.3mb 51f 53f
4:48pm 15 16 mph 1017.3mb 51f 53f
4:42pm 14 16 mph 1017.3mb 51f 53f
4:36pm 16 17 mph 1017.3mb 51f 54f
4:30pm 15 20 mph 1017.3mb 51f 53f
4:24pm 17 21 mph 1017.3mb 51f 54f
4:18pm 21 23 mph 1017.3mb 51f 55f
4:12pm 22 25 mph 1017.2mb 51f 55f
4:06pm 22 25 mph 1017.3mb 51f 55f
4:00pm 18 20 mph 1017.3mb 51f 54f
3:54pm 17 22 mph 1017.4mb 51f 54f
3:48pm 21 22 mph 1017.3mb 51f 55f
3:42pm 18 21 mph 1017.4mb 51f 55f
3:36pm 20 25 mph 1017.3mb 51f 55f
3:30pm 24 26 mph 1017.1mb 51f 56f
3:24pm 17 22 mph 1017.3mb 51f 55f
3:18pm 18 21 mph 1017.3mb 51f 55f
3:12pm 17 24 mph 1017.3mb 51f 56f
3:06pm 17 20 mph 1017.3mb 51f 56f
3:00pm 20 23 mph 1017.4mb 51f 56f
2:54pm 21 25 mph 1017.3mb 51f 56f
2:48pm 22 24 mph 1017.3mb 51f 56f
2:42pm 18 22 mph 1017.4mb 51f 56f
2:36pm 17 20 mph 1017.2mb 51f 56f
2:30pm 18 21 mph 1017.3mb 51f 56f
2:24pm 16 20 mph 1017.4mb 51f 56f
2:18pm 15 21 mph 1017.5mb 51f 56f
2:12pm 14 16 mph 1017.5mb 51f 56f
2:06pm 14 21 mph 1017.5mb 51f 57f
2:00pm 21 23 mph 1017.4mb 51f 57f
1:54pm 22 28 mph 1017.3mb 51f 58f
1:48pm 15 22 mph 1017.5mb 51f 55f
1:42pm 18 23 mph 1017.3mb 51f 55f
1:36pm 17 20 mph 1017.4mb 51f 54f
1:30pm 17 20 mph 1017.6mb 51f 54f
1:24pm 17 21 mph 1017.6mb 51f 54f
1:18pm 16 17 mph 1017.7mb 51f 53f
1:12pm 16 18 mph 1017.8mb 51f 54f
1:06pm 17 18 mph 1017.9mb 51f 54f
1:00pm 14 17 mph 1018mb 51f 53f
12:54pm 16 21 mph 1018.3mb 51f 54f
12:48pm 21 21 mph 1018.4mb 51f 55f
12:42pm 22 26 mph 1018.6mb 51f 55f
12:36pm 23 26 mph 1018.6mb 51f 56f
12:30pm 22 25 mph 1018.9mb 51f 55f
12:24pm 22 25 mph 1019mb 51f 55f
12:18pm 18 26 mph 1019.1mb 51f 55f
12:12pm 20 25 mph 1019.3mb 51f 55f
12:06pm 18 26 mph 1019.4mb 51f 54f
12:00pm 25 26 mph 1019.4mb 51f 55f
11:54am 21 25 mph 1019.6mb 51f 54f
11:48am 17 22 mph 1019.7mb 51f 54f
11:42am 18 26 mph 1019.9mb 51f 54f
11:36am 23 26 mph 1019.9mb 51f 54f
11:30am 24 28 mph 1020mb 51f 54f
11:24am 22 24 mph 1020.2mb 51f 53f
11:18am 23 26 mph 1020.4mb 51f 53f
11:12am 23 26 mph 1020.4mb 51f 53f
11:06am  -  mph - 51f -
11:00am 22 28 mph 1020.7mb 51f 52f
10:54am 26 31 mph 1020.5mb 51f 53f
10:48am 28 31 mph 1020.6mb 51f 53f
10:42am 23 29 mph 1020.7mb 51f 53f
10:36am 28 30 mph 1020.5mb 51f 53f
10:30am 23 29 mph 1020.7mb 51f 53f
10:24am 26 31 mph 1020.6mb 51f 53f
10:18am 25 30 mph 1020.6mb 51f 52f
10:12am 28 31 mph 1020.4mb 51f 52f
10:06am 25 30 mph 1020.5mb 51f 52f
10:00am 26 30 mph 1020.4mb 51f 52f
9:54am 26 30 mph 1020.6mb 51f 52f
9:48am 23 26 mph 1020.6mb 51f 51f
9:42am 23 26 mph 1020.7mb 51f 51f
9:36am 23 30 mph 1020.7mb 51f 51f
9:30am 24 31 mph 1020.6mb 51f 51f
9:24am 23 28 mph 1020.8mb 51f 51f
9:18am 24 28 mph 1020.7mb 51f 50f
9:12am 23 26 mph 1020.9mb 51f 50f
9:06am 22 26 mph 1021mb 51f 50f
9:00am 22 25 mph 1020.9mb 51f 49f
8:54am 23 26 mph 1020.8mb 51f 49f
8:48am 22 24 mph 1020.8mb 51f 48f
8:42am 17 21 mph 1021mb 51f 47f
8:36am 18 22 mph 1021mb 51f 47f
8:30am 18 22 mph 1021.1mb 51f 47f
8:24am 20 21 mph 1021mb 51f 46f
8:12am 18 21 mph 1021.1mb 51f 46f
8:06am 18 22 mph 1021.1mb 51f 46f
8:00am 18 21 mph 1021.1mb 51f 45f
7:54am 17 21 mph 1021.1mb 51f 45f
7:48am 17 20 mph 1021.1mb 51f 44f
7:42am 17 18 mph 1021mb 51f 44f
7:36am 18 21 mph 1020.9mb 51f 44f
7:30am 18 22 mph 1020.9mb 51f 44f
7:24am 18 21 mph 1020.8mb 51f 44f
7:18am 18 22 mph 1020.8mb 51f 44f
7:12am 20 23 mph 1020.8mb 51f 44f
7:06am 20 22 mph 1020.7mb 51f 44f
7:00am 18 22 mph 1020.7mb 51f 44f
6:54am 20 22 mph 1020.6mb 51f 44f
6:48am 18 22 mph 1020.6mb 51f 44f
6:42am 20 23 mph 1020.6mb 51f 44f
6:36am 20 22 mph 1020.7mb 51f 44f
6:30am 20 22 mph 1020.6mb 51f 44f
6:24am 18 23 mph 1020.6mb 51f 44f
6:18am 20 22 mph 1020.5mb 51f 44f
6:12am 18 21 mph 1020.5mb 51f 44f
6:06am 18 22 mph 1020.5mb 51f 44f
6:00am 20 22 mph 1020.5mb 51f 44f
5:54am 20 23 mph 1020.4mb 51f 44f
5:48am 18 22 mph 1020.5mb 51f 44f
5:42am 18 22 mph 1020.6mb 51f 44f
5:36am 18 21 mph 1020.4mb 51f 44f
5:30am 18 21 mph 1020.4mb 51f 44f
5:18am 18 22 mph 1020.4mb 51f 44f
5:12am 17 21 mph 1020.4mb 51f 44f
5:06am 20 22 mph 1020.4mb 51f 44f
5:00am 20 21 mph 1020.4mb 51f 44f
4:54am 20 22 mph 1020.4mb 51f 44f
4:48am 20 23 mph 1020.5mb 51f 45f
4:42am 20 22 mph 1020.4mb 51f 45f
4:36am 20 23 mph 1020.4mb 51f 45f
4:30am 20 22 mph 1020.3mb 51f 44f
4:24am 18 21 mph 1020.4mb 51f 44f
4:18am 17 20 mph 1020.6mb 51f 44f
4:12am 17 20 mph 1020.6mb 51f 44f
4:06am 16 20 mph 1020.7mb 51f 44f
4:00am 17 22 mph 1020.7mb 51f 44f
3:54am 18 22 mph 1020.7mb 51f 44f
3:48am 18 22 mph 1020.8mb 51f 44f
3:42am 17 21 mph 1020.8mb 51f 44f
3:36am 20 23 mph 1020.8mb 51f 45f
3:30am 22 23 mph 1020.8mb 51f 45f
3:24am 22 23 mph 1020.9mb 51f 45f
3:18am 16 22 mph 1021mb 51f 45f
3:12am 18 21 mph 1021mb 51f 45f
3:06am 17 21 mph 1021.2mb 51f 44f
3:00am 16 21 mph 1021.3mb 51f 44f
2:54am 17 20 mph 1021.4mb 51f 44f
2:48am 18 21 mph 1021.3mb 51f 44f
2:42am 17 20 mph 1021.4mb 51f 45f
2:36am 16 18 mph 1021.4mb 51f 45f
2:30am 17 21 mph 1021.4mb 51f 45f
2:24am 17 20 mph 1021.4mb 51f 45f
2:18am 20 21 mph 1021.5mb 51f 45f
2:12am 18 21 mph 1021.5mb 51f 45f
2:06am 17 21 mph 1021.5mb 51f 45f
2:00am 17 18 mph 1021.5mb 51f 45f
1:54am 16 17 mph 1021.5mb 51f 45f
1:48am 14 17 mph 1021.4mb 51f 45f
1:42am 15 17 mph 1021.4mb 51f 45f
1:36am 16 20 mph 1021.5mb 51f 45f
1:30am 15 18 mph 1021.4mb 51f 45f
1:24am 16 22 mph 1021.4mb 52f 45f
1:18am 20 22 mph 1021.4mb 52f 45f
1:12am 18 22 mph 1021.4mb 52f 46f
1:06am 17 22 mph 1021.4mb 52f 45f
1:00am 17 20 mph 1021.4mb 52f 45f
12:54am 17 20 mph 1021.4mb 52f 45f
12:48am 16 18 mph 1021.4mb 52f 45f
12:42am 16 18 mph 1021.5mb 52f 45f
12:30am 14 17 mph 1021.5mb 52f 44f
12:24am 15 16 mph 1021.5mb 52f 44f
12:18am 13 16 mph 1021.6mb 52f 44f
12:12am 15 17 mph 1021.6mb 52f 44f
12:06am 15 17 mph 1021.6mb 52f 44f
12:00am 15 16 mph 1021.6mb 52f 44f
Mon 11/20 11:54pm 14 17 mph 1021.6mb 52f 44f
11:48pm 15 17 mph 1021.7mb 52f 44f
11:42pm 15 18 mph 1021.7mb 52f 44f
11:36pm 15 17 mph 1021.8mb 52f 44f
11:30pm 15 17 mph 1021.7mb 52f 44f
11:24pm 15 17 mph 1021.8mb 52f 44f
11:18pm 15 17 mph 1021.8mb 52f 44f
11:12pm 16 17 mph 1021.8mb 52f 44f
11:06pm 15 17 mph 1021.7mb 52f 44f
11:00pm 15 17 mph 1021.8mb 52f 44f
10:54pm 15 17 mph 1021.8mb 52f 44f
10:48pm 14 16 mph 1021.8mb 52f 44f
10:42pm 15 16 mph 1021.9mb 52f 44f
10:36pm 15 16 mph 1021.9mb 52f 44f
10:30pm 14 16 mph 1021.9mb 52f 44f
10:24pm 14 16 mph 1022mb 52f 44f
10:18pm 15 17 mph 1022mb 52f 44f
10:12pm 15 17 mph 1022mb 52f 44f
10:06pm 15 18 mph 1022mb 52f 44f
10:00pm 15 18 mph 1022mb 52f 44f
9:54pm 14 16 mph 1021.9mb 52f 45f
9:48pm 15 16 mph 1021.9mb 52f 45f
9:42pm 14 16 mph 1021.9mb 52f 45f
9:36pm 13 15 mph 1021.9mb 52f 45f
9:30pm 13 15 mph 1021.8mb 52f 45f
9:24pm 14 16 mph 1021.8mb 52f 45f
9:18pm 14 16 mph 1021.7mb 52f 45f
9:12pm 14 15 mph 1021.7mb 52f 45f
9:06pm 14 15 mph 1021.7mb 52f 45f
9:00pm 13 15 mph 1021.6mb 52f 45f
8:54pm 13 15 mph 1021.7mb 52f 45f
8:48pm 14 15 mph 1021.6mb 52f 45f
8:42pm 13 14 mph 1021.6mb 52f 46f
8:36pm 13 14 mph 1021.6mb 52f 46f
8:30pm 13 14 mph 1021.6mb 52f 46f
8:24pm 14 15 mph 1021.6mb 52f 46f
8:18pm 11 14 mph 1021.6mb 52f 45f
8:12pm 13 15 mph 1021.6mb 52f 45f
8:06pm 14 15 mph 1021.6mb 52f 45f
8:00pm 13 14 mph 1021.6mb 52f 45f
7:48pm 11 15 mph 1021.5mb 52f 45f
7:42pm 11 14 mph 1021.5mb 52f 45f
7:36pm 10 13 mph 1021.6mb 52f 45f
7:30pm 10 14 mph 1021.5mb 52f 45f
7:24pm 11 16 mph 1021.5mb 52f 45f
7:18pm 11 14 mph 1021.4mb 52f 45f
7:12pm 11 14 mph 1021.4mb 52f 45f
7:06pm 11 14 mph 1021.4mb 52f 46f
7:00pm 10 13 mph 1021.3mb 52f 45f
6:54pm 9 11 mph 1021.3mb 52f 46f
6:48pm 9 14 mph 1021.3mb 52f 46f
6:42pm 11 13 mph 1021.4mb 52f 46f
6:36pm 10 11 mph 1021.3mb 52f 45f
6:30pm 10 11 mph 1021.2mb 52f 45f
6:24pm 9 11 mph 1021mb 52f 45f
6:18pm 10 15 mph 1021.1mb 52f 46f
6:12pm 8 9 mph 1021.1mb 52f 46f
6:06pm 5 7 mph 1021.2mb 52f 45f
6:00pm 7 8 mph 1021.2mb 52f 45f
5:54pm 7 11 mph 1021.2mb 52f 45f
5:48pm 10 13 mph 1021.1mb 52f 45f
5:42pm 6 9 mph 1021mb 52f 46f
5:36pm 8 9 mph 1021mb 52f 46f
5:30pm 8 10 mph 1021mb 52f 46f
5:24pm 8 10 mph 1021.1mb 52f 46f
5:18pm 10 13 mph 1021.2mb 52f 46f
5:12pm 9 11 mph 1021.1mb 52f 46f
5:06pm 10 11 mph 1021.1mb 52f 46f
5:00pm 8 10 mph 1021.1mb 52f 46f
4:54pm 8 10 mph 1021mb 52f 46f
4:48pm 9 11 mph 1021.1mb 52f 46f
4:42pm 11 15 mph 1021.1mb 52f 47f
4:36pm 14 17 mph 1020.9mb 52f 47f
4:30pm 17 20 mph 1020.8mb 52f 47f
4:24pm 16 20 mph 1020.8mb 52f 47f
4:18pm 16 20 mph 1020.8mb 52f 47f
4:12pm 17 18 mph 1020.8mb 52f 47f
4:06pm 17 22 mph 1020.9mb 52f 47f
4:00pm 18 23 mph 1020.9mb 52f 47f
3:54pm 20 22 mph 1020.9mb 52f 47f
3:48pm 20 23 mph 1020.8mb 52f 47f
3:42pm 18 22 mph 1020.8mb 52f 47f
3:36pm 17 21 mph 1020.7mb 52f 47f
3:30pm 16 20 mph 1020.7mb 52f 46f
3:24pm 17 20 mph 1020.6mb 52f 46f
3:18pm 18 21 mph 1020.5mb 52f 46f
3:12pm 17 21 mph 1020.5mb 52f 46f
3:06pm 18 21 mph 1020.5mb 52f 46f
3:00pm 16 22 mph 1020.5mb 52f 46f
2:54pm 17 21 mph 1020.5mb 52f 46f
2:48pm 15 21 mph 1020.5mb 52f 46f
2:42pm 17 22 mph 1020.4mb 52f 46f
2:36pm 17 24 mph 1020.3mb 52f 46f
2:30pm 18 23 mph 1020.4mb 52f 46f
2:24pm 17 23 mph 1020.4mb 52f 46f
2:18pm 20 22 mph 1020.3mb 52f 46f
2:12pm 18 22 mph 1020.4mb 52f 46f
2:06pm 20 23 mph 1020.3mb 52f 45f
2:00pm 16 22 mph 1020.4mb 52f 46f
1:54pm 17 20 mph 1020.5mb 52f 45f
1:48pm 17 22 mph 1020.4mb 52f 45f
1:42pm 15 21 mph 1020.4mb 52f 45f
1:36pm 18 22 mph 1020.4mb 52f 45f
1:30pm 14 21 mph 1020.5mb 52f 45f
1:24pm 17 22 mph 1020.4mb 52f 45f
1:18pm 16 22 mph 1020.4mb 52f 45f
1:12pm 18 21 mph 1020.4mb 52f 44f
1:06pm 17 21 mph 1020.3mb 52f 44f
1:00pm 15 18 mph 1020.2mb 52f 44f
12:54pm 17 22 mph 1020.3mb 52f 44f
12:48pm 18 22 mph 1020.3mb 52f 44f
12:42pm 18 23 mph 1020.2mb 52f 44f
12:36pm 16 20 mph 1020.2mb 52f 44f
12:30pm 18 22 mph 1020.1mb 52f 43f
12:24pm 14 17 mph 1020.1mb 52f 44f
12:18pm 15 21 mph 1020.3mb 52f 43f
12:12pm 20 22 mph 1020.1mb 52f 43f
12:06pm 16 23 mph 1020.3mb 52f 42f
12:00pm 17 22 mph 1020.3mb 52f 43f
11:54am 20 23 mph 1020.4mb 52f 43f
11:48am 22 24 mph 1020.3mb 52f 42f
11:42am 17 23 mph 1020.5mb 52f 42f
11:36am  -  mph - 52f -
11:30am 22 23 mph 1020.6mb 52f 42f
11:24am 21 24 mph 1020.5mb 52f 42f
11:18am 22 25 mph 1020.6mb 52f 42f
11:12am 18 24 mph 1020.6mb 52f 42f
11:06am 18 22 mph 1020.7mb 52f 42f
11:00am 21 24 mph 1020.8mb 52f 42f
10:54am 20 25 mph 1020.9mb 52f 42f
10:48am 21 24 mph 1020.8mb 52f 41f
10:42am 21 23 mph 1021mb 52f 41f
10:36am 22 25 mph 1021mb 52f 41f
10:30am 22 28 mph 1021mb 52f 41f
10:24am 20 26 mph 1021.1mb 52f 41f
10:18am 18 25 mph 1021.1mb 52f 41f
10:06am 23 26 mph 1020.9mb 52f 41f
10:00am 20 25 mph 1020.9mb 52f 41f
9:54am 23 26 mph 1020.8mb 52f 40f
9:48am 22 25 mph 1020.7mb 52f 40f
9:42am 22 29 mph 1020.7mb 52f 41f
9:36am 23 28 mph 1020.6mb 52f 40f
9:30am 17 24 mph 1020.7mb 52f 40f
9:24am 22 26 mph 1020.6mb 52f 40f
9:18am 17 23 mph 1020.7mb 52f 40f
9:12am 18 26 mph 1020.7mb 52f 40f
9:06am 15 23 mph 1020.8mb 52f 41f
9:00am 17 24 mph 1020.9mb 52f 40f
8:48am 20 24 mph 1020.9mb 52f 40f
8:42am 18 22 mph 1020.9mb 52f 40f
8:36am 17 24 mph 1020.9mb 52f 40f
8:30am 18 23 mph 1020.8mb 52f 40f
8:24am 18 22 mph 1020.9mb 52f 40f
8:18am 17 23 mph 1020.8mb 52f 40f
8:12am 20 22 mph 1020.8mb 52f 40f
8:06am 18 24 mph 1020.7mb 52f 40f
8:00am 20 22 mph 1020.5mb 52f 40f
7:54am 17 23 mph 1020.3mb 52f 40f
7:48am 18 21 mph 1020.3mb 52f 40f
7:42am 20 23 mph 1020.1mb 52f 39f
7:36am 18 21 mph 1020mb 52f 39f
7:30am 18 22 mph 1019.9mb 52f 39f
7:24am 18 22 mph 1019.8mb 52f 39f
7:18am 18 22 mph 1019.6mb 52f 39f
7:12am 20 22 mph 1019.5mb 52f 39f
7:06am 18 21 mph 1019.4mb 52f 39f
7:00am 17 22 mph 1019.3mb 52f 39f
6:54am 18 22 mph 1019.2mb 52f 40f
6:48am 20 23 mph 1019.1mb 52f 39f
6:42am 20 24 mph 1018.9mb 52f 39f
6:36am 22 24 mph 1018.7mb 52f 39f
6:30am 23 25 mph 1018.6mb 52f 40f
6:24am 22 25 mph 1018.5mb 52f 40f
6:18am 22 24 mph 1018.4mb 52f 39f
6:12am 20 23 mph 1018.3mb 52f 39f
6:06am 18 22 mph 1018.1mb 52f 40f
6:00am 18 22 mph 1018mb 52f 39f
5:54am 20 23 mph 1017.9mb 52f 40f
5:48am 22 24 mph 1017.7mb 52f 40f
5:42am 23 26 mph 1017.5mb 52f 40f
5:36am 23 28 mph 1017.4mb 52f 40f
5:24am 28 31 mph 1016.9mb 52f 40f
5:18am 29 33 mph 1016.7mb 52f 40f
5:12am 29 32 mph 1016.5mb 52f 40f
5:06am 29 32 mph 1016.4mb 52f 40f
5:00am 25 30 mph 1016.4mb 52f 40f
4:54am 28 29 mph 1016.4mb 52f 40f
4:48am 23 28 mph 1016.4mb 52f 41f
4:42am 22 25 mph 1016.5mb 52f 41f
4:36am 20 23 mph 1016.4mb 52f 40f
4:30am 20 22 mph 1016.3mb 52f 41f
4:24am 18 21 mph 1016.2mb 52f 40f
4:18am 21 23 mph 1016.1mb 52f 40f
4:12am 17 22 mph 1016.1mb 52f 40f
4:06am 18 23 mph 1015.9mb 52f 41f
4:00am 17 21 mph 1015.8mb 52f 41f
3:54am 18 23 mph 1015.7mb 52f 41f
3:48am 20 24 mph 1015.6mb 52f 41f
3:42am 20 23 mph 1015.6mb 52f 41f
3:36am 22 26 mph 1015.5mb 52f 41f
3:30am 24 28 mph 1015.4mb 52f 42f
3:24am 25 29 mph 1015.3mb 52f 42f
3:18am 28 32 mph 1015.1mb 52f 42f
3:12am 26 31 mph 1015.2mb 52f 42f
3:06am 26 29 mph 1015mb 52f 42f
3:00am 28 32 mph 1014.9mb 52f 42f
2:54am 29 33 mph 1014.9mb 52f 42f
2:48am 28 31 mph 1014.9mb 52f 42f
2:42am 26 32 mph 1014.9mb 52f 42f
2:36am 25 31 mph 1014.7mb 52f 43f
2:30am 24 32 mph 1014.7mb 52f 43f
2:24am 24 26 mph 1014.7mb 52f 43f
2:18am 20 23 mph 1014.7mb 52f 43f
2:12am 22 25 mph 1014.5mb 52f 43f
2:06am 18 23 mph 1014.4mb 52f 43f
2:00am 15 17 mph 1014.5mb 52f 43f
1:54am 14 17 mph 1014.4mb 52f 43f
1:48am 16 20 mph 1014.2mb 52f 42f
1:42am 16 20 mph 1014mb 52f 43f
1:36am 16 20 mph 1013.8mb 52f 43f
1:30am 16 20 mph 1013.7mb 52f 43f
1:24am 17 22 mph 1013.5mb 52f 43f
1:18am 20 22 mph 1013.5mb 52f 42f
1:12am 18 22 mph 1013.4mb 52f 43f
1:06am 18 22 mph 1013.3mb 52f 43f
1:00am 18 21 mph 1013.3mb 52f 42f
12:54am 16 18 mph 1013.3mb 52f 42f
12:48am 17 20 mph 1013.2mb 52f -
12:42am 15 20 mph 1013.1mb 52f -
12:36am 15 18 mph 1013mb 52f -
12:30am 17 20 mph 1013mb 52f 42f
12:24am 16 18 mph 1013mb 52f 43f
12:18am 16 20 mph 1012.8mb 52f 43f
12:12am 15 17 mph 1012.7mb 52f 43f
12:06am 16 20 mph 1012.6mb 52f 42f
12:00am 16 20 mph 1012.5mb 52f 42f
Sun 11/19 11:54pm 16 20 mph 1012.5mb 52f 43f
11:48pm 16 20 mph 1012.5mb 52f 43f
11:42pm 15 18 mph 1012.5mb 52f 43f
11:36pm 16 18 mph 1012.5mb 52f 42f
11:30pm 15 17 mph 1012.6mb 52f 42f
11:24pm 13 15 mph 1012.5mb 52f 42f
11:18pm 11 14 mph 1012.5mb 52f 42f
11:12pm 14 17 mph 1012.4mb 52f 43f
11:06pm 14 17 mph 1012.3mb 52f 43f
11:00pm 15 18 mph 1012.2mb 52f 43f
10:54pm 16 20 mph 1012.1mb 53f 43f
10:48pm 16 21 mph 1012mb 53f 43f
10:42pm 18 21 mph 1011.8mb 53f 43f
10:36pm 17 22 mph 1011.8mb 53f 44f
10:30pm 17 21 mph 1011.8mb 53f 44f
10:24pm 17 20 mph 1011.7mb 53f 43f
10:18pm 18 21 mph 1011.6mb 53f 44f
10:12pm 18 22 mph 1011.5mb 53f 44f
10:06pm 18 21 mph 1011.4mb 53f 44f
10:00pm 18 23 mph 1011.3mb 53f 44f
9:54pm 20 24 mph 1011.3mb 53f 44f
9:48pm 20 23 mph 1011.2mb 53f 44f
9:42pm 21 26 mph 1011mb 53f 44f
9:36pm 22 26 mph 1011mb 53f 44f
9:30pm 21 26 mph 1011mb 53f 44f
9:24pm 22 28 mph 1010.9mb 53f 44f
9:18pm 18 23 mph 1010.9mb 53f 44f
9:12pm 17 22 mph 1010.7mb 53f 44f
9:06pm 21 23 mph 1010.5mb 53f 44f
9:00pm 21 25 mph 1010.4mb 53f 45f
8:54pm 22 28 mph 1010.4mb 53f 45f
8:48pm 22 26 mph 1010.3mb 53f 45f
8:42pm 23 26 mph 1010.3mb 53f 45f
8:36pm 21 23 mph 1010.2mb 53f 45f
8:30pm 22 24 mph 1010.1mb 53f 45f
8:24pm 21 24 mph 1010mb 53f 45f
8:18pm 23 25 mph 1009.9mb 53f 46f
8:12pm 21 28 mph 1009.9mb 53f 46f
8:06pm 26 30 mph 1009.7mb 53f 46f
8:00pm 25 28 mph 1009.6mb 53f 46f
7:54pm 25 30 mph 1009.6mb 53f 46f
7:48pm 24 28 mph 1009.5mb 53f 46f
7:42pm 24 30 mph 1009.4mb 53f 46f
7:36pm 24 30 mph 1009.2mb 53f 46f
7:30pm 23 29 mph 1009.2mb 53f 46f
7:24pm 24 30 mph 1009.3mb 53f 47f
7:18pm 24 29 mph 1009.1mb 53f 46f
7:12pm 29 32 mph 1009mb 53f 47f
7:06pm 23 30 mph 1009mb 53f 47f
7:00pm 26 30 mph 1008.9mb 53f 47f
6:54pm 25 30 mph 1008.9mb 53f 47f
6:48pm 24 29 mph 1008.8mb 53f 47f
6:42pm 23 29 mph 1008.7mb 53f 47f
6:36pm 23 28 mph 1008.7mb 53f 47f
6:30pm 24 30 mph 1008.5mb 53f 47f
6:24pm 23 28 mph 1008.4mb 53f 47f
6:18pm 28 31 mph 1008.3mb 53f 47f
6:12pm 24 29 mph 1008.1mb 53f 47f
6:06pm 25 29 mph 1007.9mb 53f 47f
6:00pm 24 28 mph 1007.9mb 53f 47f
5:54pm 24 30 mph 1007.9mb 53f 47f
5:48pm 26 29 mph 1007.6mb 53f 47f
5:42pm 23 29 mph 1007.7mb 53f 47f
5:36pm 23 26 mph 1007.6mb 53f 47f
5:30pm 20 23 mph 1007.6mb 53f 47f
5:24pm 22 25 mph 1007.3mb 53f 47f
5:18pm 22 28 mph 1007.3mb 53f 47f
5:12pm 25 30 mph 1007.1mb 53f 47f
5:06pm 28 32 mph 1006.8mb 53f 47f
5:00pm 26 32 mph 1006.8mb 53f 48f
4:54pm 31 34 mph 1006.5mb 53f 47f
4:48pm 29 37 mph 1006.6mb 53f 48f
4:42pm 32 36 mph 1006.2mb 53f 48f
4:36pm 32 37 mph 1006.1mb 53f 48f
4:30pm 31 36 mph 1005.9mb 53f 48f
4:24pm 29 36 mph 1005.8mb 53f 48f
4:18pm 32 39 mph 1005.5mb 53f 48f
4:12pm 31 36 mph 1005.2mb 53f 48f
4:06pm 33 37 mph 1005mb 53f 48f
4:00pm 29 38 mph 1004.9mb 53f 49f
3:54pm 36 41 mph 1004.7mb 53f 49f
3:48pm 30 33 mph 1004.6mb 53f 49f
3:42pm 30 34 mph 1004.5mb 53f 49f
3:36pm 30 33 mph 1004.4mb 53f 49f
3:30pm 30 34 mph 1004.2mb 53f 50f
3:24pm 29 33 mph 1004.1mb 53f 50f
3:18pm 29 34 mph 1004.1mb 53f 50f
3:12pm 32 34 mph 1003.8mb 53f 50f
3:06pm 30 36 mph 1003.6mb 53f 50f
3:00pm 33 37 mph 1003.2mb 53f 50f
2:54pm 29 37 mph 1003.3mb 53f 51f
2:48pm 31 36 mph 1003.1mb 53f 51f
2:42pm 30 33 mph 1003.1mb 53f 51f
2:36pm 29 31 mph 1003mb 53f 51f
2:30pm 30 36 mph 1002.8mb 53f 51f
2:24pm 30 36 mph 1002.7mb 53f 51f
2:18pm 34 38 mph 1002.4mb 53f 51f
2:12pm 29 37 mph 1002.5mb 53f 51f
2:06pm 31 40 mph 1002.3mb 53f 51f
2:00pm 34 39 mph 1002.2mb 53f 51f
1:54pm 31 40 mph 1002.3mb 53f 51f
1:48pm 33 37 mph 1002.1mb 53f 51f
1:42pm 29 32 mph 1002.4mb 53f 51f
1:36pm 31 37 mph 1002.5mb 53f 51f
1:24pm 29 37 mph 1002.5mb 53f 51f
1:18pm 31 38 mph 1002.3mb 53f 51f
1:12pm 30 37 mph 1002.5mb 53f 51f
1:06pm 33 38 mph 1002.4mb 53f 51f
1:00pm 34 39 mph 1002.4mb 53f 51f
12:54pm 31 36 mph 1002.4mb 53f 51f
12:48pm 31 37 mph 1002.4mb 53f 51f
12:42pm 26 32 mph 1002.4mb 53f 51f
12:36pm 28 33 mph 1002.4mb 53f 51f
12:30pm 28 37 mph 1002.3mb 53f 51f
12:24pm 30 39 mph 1002.1mb 53f 51f
12:18pm 33 37 mph 1001.7mb 53f 51f
12:12pm 32 39 mph 1001.9mb 53f 51f
12:06pm 33 37 mph 1001.8mb 53f 51f
12:00pm 32 39 mph 1001.8mb 53f 51f
11:54am 32 39 mph 1001.9mb 53f 51f
11:48am 36 41 mph 1001.7mb 53f 51f
11:42am 34 38 mph 1001.8mb 53f 51f
11:36am 32 41 mph 1002mb 53f 51f
11:30am 33 37 mph 1001.9mb 53f 51f
11:24am 33 38 mph 1001.9mb 53f 51f
11:18am 33 38 mph 1001.7mb 53f 51f
11:12am 31 36 mph 1001.8mb 53f 51f
11:06am 30 40 mph 1001.8mb 53f 51f
11:00am 34 39 mph 1001.5mb 53f 51f
10:54am 34 41 mph 1001.4mb 53f 51f
10:48am 33 40 mph 1001.5mb 53f 51f
10:42am 33 38 mph 1001.4mb 53f 51f
10:36am 31 40 mph 1001.4mb 53f 51f
10:30am 33 40 mph 1001.1mb 53f 51f
10:24am 33 39 mph 1001.1mb 53f 51f
10:18am 33 40 mph 1001mb 53f 50f
10:12am 32 40 mph 1001.1mb 53f 50f
10:06am 33 39 mph 1000.9mb 53f 50f
10:00am 33 40 mph 1000.9mb 53f 50f
9:54am 30 36 mph 1000.7mb 53f 50f
9:48am 34 40 mph 1000.5mb 53f 50f
8:54am 33 40 mph 999.1mb 53f 50f
8:48am 33 38 mph 999mb 53f 50f